createdAt,value
2017-09-24T00:00:04.852Z,1000.5
2017-09-24T00:00:25.264Z,1000.5
2017-09-24T00:00:45.661Z,1000.5
2017-09-24T00:01:06.159Z,1000.4
2017-09-24T00:01:26.382Z,1000.4
2017-09-24T00:01:46.723Z,1000.5
2017-09-24T00:02:07.097Z,1000.5
2017-09-24T00:02:27.461Z,1000.4
2017-09-24T00:02:47.815Z,1000.5
2017-09-24T00:03:08.317Z,1000.5
2017-09-24T00:03:28.662Z,1000.4
2017-09-24T00:03:48.904Z,1000.4
2017-09-24T00:04:09.380Z,1000.5
2017-09-24T00:04:29.727Z,1000.4
2017-09-24T00:04:50.018Z,1000.5
2017-09-24T00:05:10.338Z,1000.5
2017-09-24T00:05:30.587Z,1000.5
2017-09-24T00:05:51.006Z,1000.5
2017-09-24T00:06:11.226Z,1000.5
2017-09-24T00:06:31.624Z,1000.4
2017-09-24T00:06:52.057Z,1000.4
2017-09-24T00:07:12.371Z,1000.4
2017-09-24T00:07:32.719Z,1000.5
2017-09-24T00:07:52.978Z,1000.4
2017-09-24T00:08:13.271Z,1000.5
2017-09-24T00:08:33.720Z,1000.5
2017-09-24T00:08:54.068Z,1000.5
2017-09-24T00:09:14.365Z,1000.5
2017-09-24T00:09:34.644Z,1000.5
2017-09-24T00:09:54.931Z,1000.5
2017-09-24T00:10:15.233Z,1000.5
2017-09-24T00:10:35.498Z,1000.5
2017-09-24T00:10:55.749Z,1000.4
2017-09-24T00:11:16.007Z,1000.4
2017-09-24T00:11:36.253Z,1000.4
2017-09-24T00:11:56.570Z,1000.5
2017-09-24T00:12:16.992Z,1000.4
2017-09-24T00:12:37.350Z,1000.5
2017-09-24T00:12:57.624Z,1000.4
2017-09-24T00:13:18.004Z,1000.4
2017-09-24T00:13:38.260Z,1000.4
2017-09-24T00:13:58.556Z,1000.4
2017-09-24T00:14:18.918Z,1000.4
2017-09-24T00:14:39.240Z,1000.5
2017-09-24T00:14:59.602Z,1000.5
2017-09-24T00:15:19.864Z,1000.4
2017-09-24T00:15:40.149Z,1000.4
2017-09-24T00:16:00.476Z,1000.4
2017-09-24T00:16:21.563Z,1000.4
2017-09-24T00:16:42.541Z,1000.4
2017-09-24T00:17:03.576Z,1000.4
2017-09-24T00:17:24.593Z,1000.4
2017-09-24T00:17:45.121Z,1000.4
2017-09-24T00:18:05.478Z,1000.4
2017-09-24T00:18:25.733Z,1000.4
2017-09-24T00:18:46.110Z,1000.4
2017-09-24T00:19:06.428Z,1000.4
2017-09-24T00:19:26.844Z,1000.4
2017-09-24T00:19:47.347Z,1000.4
2017-09-24T00:20:07.654Z,1000.4
2017-09-24T00:20:27.999Z,1000.4
2017-09-24T00:20:48.288Z,1000.4
2017-09-24T00:21:08.642Z,1000.4
2017-09-24T00:21:28.907Z,1000.4
2017-09-24T00:21:49.269Z,1000.4
2017-09-24T00:22:09.611Z,1000.4
2017-09-24T00:22:29.897Z,1000.4
2017-09-24T00:22:50.183Z,1000.4
2017-09-24T00:23:10.420Z,1000.3
2017-09-24T00:23:30.718Z,1000.3
2017-09-24T00:23:51.029Z,1000.3
2017-09-24T00:24:11.330Z,1000.3
2017-09-24T00:24:31.695Z,1000.3
2017-09-24T00:24:52.022Z,1000.4
2017-09-24T00:25:12.486Z,1000.4
2017-09-24T00:25:32.814Z,1000.3
2017-09-24T00:25:53.163Z,1000.3
2017-09-24T00:26:13.506Z,1000.3
2017-09-24T00:26:33.849Z,1000.3
2017-09-24T00:26:54.200Z,1000.3
2017-09-24T00:27:14.553Z,1000.3
2017-09-24T00:27:34.926Z,1000.3
2017-09-24T00:27:55.283Z,1000.3
2017-09-24T00:28:15.704Z,1000.3
2017-09-24T00:28:36.131Z,1000.3
2017-09-24T00:28:56.525Z,1000.3
2017-09-24T00:29:16.989Z,1000.3
2017-09-24T00:29:37.293Z,1000.2
2017-09-24T00:29:57.631Z,1000.3
2017-09-24T00:30:17.994Z,1000.2
2017-09-24T00:30:38.307Z,1000.3
2017-09-24T00:30:58.580Z,1000.2
2017-09-24T00:31:18.896Z,1000.3
2017-09-24T00:31:39.189Z,1000.2
2017-09-24T00:31:59.567Z,1000.3
2017-09-24T00:32:19.866Z,1000.3
2017-09-24T00:32:40.059Z,1000.3
2017-09-24T00:33:00.336Z,1000.2
2017-09-24T00:33:20.545Z,1000.2
2017-09-24T00:33:40.932Z,1000.2
2017-09-24T00:34:01.233Z,1000.2
2017-09-24T00:34:21.520Z,1000.2
2017-09-24T00:34:42.022Z,1000.2
2017-09-24T00:35:02.325Z,1000.2
2017-09-24T00:35:22.652Z,1000.2
2017-09-24T00:35:43.055Z,1000.2
2017-09-24T00:36:03.330Z,1000.2
2017-09-24T00:36:23.636Z,1000.2
2017-09-24T00:36:44.090Z,1000.2
2017-09-24T00:37:04.450Z,1000.1
2017-09-24T00:37:24.746Z,1000.1
2017-09-24T00:37:45.073Z,1000.1
2017-09-24T00:38:05.443Z,1000.1
2017-09-24T00:38:25.911Z,1000.2
2017-09-24T00:38:46.256Z,1000.1
2017-09-24T00:39:06.489Z,1000.1
2017-09-24T00:39:26.871Z,1000.2
2017-09-24T00:39:47.186Z,1000.1
2017-09-24T00:40:07.451Z,1000.1
2017-09-24T00:40:27.752Z,1000.1
2017-09-24T00:40:48.087Z,1000.1
2017-09-24T00:41:08.457Z,1000.1
2017-09-24T00:41:28.907Z,1000.1
2017-09-24T00:41:49.207Z,1000.1
2017-09-24T00:42:09.556Z,1000.1
2017-09-24T00:42:29.958Z,1000
2017-09-24T00:42:50.209Z,1000
2017-09-24T00:43:10.508Z,1000
2017-09-24T00:43:31.049Z,1000.1
2017-09-24T00:43:51.383Z,1000
2017-09-24T00:44:11.849Z,1000
2017-09-24T00:44:32.198Z,1000
2017-09-24T00:44:52.426Z,1000
2017-09-24T00:45:12.719Z,1000
2017-09-24T00:45:32.979Z,1000
2017-09-24T00:45:53.263Z,1000
2017-09-24T00:46:13.672Z,1000
2017-09-24T00:46:33.928Z,1000.1
2017-09-24T00:46:54.206Z,1000
2017-09-24T00:47:14.550Z,1000
2017-09-24T00:47:34.941Z,1000
2017-09-24T00:47:55.294Z,1000.1
2017-09-24T00:48:15.660Z,1000
2017-09-24T00:48:35.887Z,1000
2017-09-24T00:48:56.218Z,1000
2017-09-24T00:49:16.624Z,1000
2017-09-24T00:49:37.050Z,1000
2017-09-24T00:49:57.375Z,1000
2017-09-24T00:50:17.735Z,1000
2017-09-24T00:50:38.093Z,1000
2017-09-24T00:50:58.409Z,1000.1
2017-09-24T00:51:18.599Z,1000
2017-09-24T00:51:38.863Z,1000
2017-09-24T00:51:59.173Z,1000
2017-09-24T00:52:19.422Z,1000
2017-09-24T00:52:39.672Z,1000
2017-09-24T00:52:59.963Z,1000.1
2017-09-24T00:53:20.190Z,1000.1
2017-09-24T00:53:40.467Z,1000
2017-09-24T00:54:00.740Z,1000.1
2017-09-24T00:54:21.022Z,1000.1
2017-09-24T00:54:41.300Z,1000
2017-09-24T00:55:01.625Z,1000
2017-09-24T00:55:21.897Z,1000.1
2017-09-24T00:55:42.112Z,1000
2017-09-24T00:56:02.387Z,1000
2017-09-24T00:56:22.641Z,1000.1
2017-09-24T00:56:42.889Z,1000
2017-09-24T00:57:03.211Z,1000.1
2017-09-24T00:57:23.642Z,1000
2017-09-24T00:57:43.942Z,1000.1
2017-09-24T00:58:04.158Z,1000.1
2017-09-24T00:58:24.417Z,1000.1
2017-09-24T00:58:44.739Z,1000.1
2017-09-24T00:59:05.047Z,1000.1
2017-09-24T00:59:25.790Z,1000.1
2017-09-24T00:59:46.127Z,1000.1
2017-09-24T01:00:06.408Z,1000.1
2017-09-24T01:00:26.699Z,1000.1
2017-09-24T01:00:46.940Z,1000.1
2017-09-24T01:01:07.243Z,1000.1
2017-09-24T01:01:27.620Z,1000.1
2017-09-24T01:01:48.145Z,1000.1
2017-09-24T01:02:08.604Z,1000.1
2017-09-24T01:02:29.123Z,1000.1
2017-09-24T01:02:49.455Z,1000.1
2017-09-24T01:03:09.814Z,1000
2017-09-24T01:03:30.098Z,1000.1
2017-09-24T01:03:50.395Z,1000.1
2017-09-24T01:04:10.784Z,1000.1
2017-09-24T01:04:31.046Z,1000.1
2017-09-24T01:04:51.520Z,1000.1
2017-09-24T01:05:11.875Z,1000.1
2017-09-24T01:05:32.191Z,1000.1
2017-09-24T01:05:52.449Z,1000.1
2017-09-24T01:06:12.828Z,1000.1
2017-09-24T01:06:33.166Z,1000.1
2017-09-24T01:06:53.453Z,1000
2017-09-24T01:07:13.755Z,1000.1
2017-09-24T01:07:34.145Z,1000
2017-09-24T01:07:54.527Z,1000
2017-09-24T01:08:14.858Z,1000
2017-09-24T01:08:35.161Z,1000.1
2017-09-24T01:08:55.523Z,1000
2017-09-24T01:09:15.812Z,1000
2017-09-24T01:09:36.176Z,1000
2017-09-24T01:09:56.422Z,1000
2017-09-24T01:10:16.705Z,1000
2017-09-24T01:10:37.075Z,1000
2017-09-24T01:10:57.352Z,1000
2017-09-24T01:11:17.630Z,1000
2017-09-24T01:11:37.989Z,1000
2017-09-24T01:11:58.301Z,1000
2017-09-24T01:12:18.549Z,1000
2017-09-24T01:12:38.942Z,1000
2017-09-24T01:12:59.251Z,1000
2017-09-24T01:13:19.484Z,1000
2017-09-24T01:13:39.771Z,1000
2017-09-24T01:14:00.057Z,1000
2017-09-24T01:14:20.415Z,1000.1
2017-09-24T01:14:40.681Z,1000
2017-09-24T01:15:00.948Z,1000.1
2017-09-24T01:15:21.234Z,1000
2017-09-24T01:15:41.477Z,1000.1
2017-09-24T01:16:01.833Z,1000.1
2017-09-24T01:16:22.162Z,1000.1
2017-09-24T01:16:42.404Z,1000.1
2017-09-24T01:17:02.648Z,1000.1
2017-09-24T01:17:22.952Z,1000.1
2017-09-24T01:17:43.208Z,1000
2017-09-24T01:18:03.461Z,1000
2017-09-24T01:18:23.752Z,1000
2017-09-24T01:18:44.087Z,1000
2017-09-24T01:19:04.464Z,1000
2017-09-24T01:19:24.767Z,1000
2017-09-24T01:19:45.075Z,1000
2017-09-24T01:20:05.451Z,1000
2017-09-24T01:20:25.730Z,1000
2017-09-24T01:20:46.024Z,1000
2017-09-24T01:21:06.466Z,1000
2017-09-24T01:21:26.758Z,1000
2017-09-24T01:21:47.095Z,1000
2017-09-24T01:22:07.352Z,1000
2017-09-24T01:22:27.692Z,1000
2017-09-24T01:22:47.908Z,1000
2017-09-24T01:23:08.392Z,999.9
2017-09-24T01:23:28.677Z,1000
2017-09-24T01:23:48.998Z,1000
2017-09-24T01:24:09.403Z,1000
2017-09-24T01:24:29.794Z,1000
2017-09-24T01:24:50.011Z,1000
2017-09-24T01:25:10.287Z,1000
2017-09-24T01:25:30.721Z,1000
2017-09-24T01:25:51.049Z,1000
2017-09-24T01:26:11.501Z,1000
2017-09-24T01:26:31.864Z,999.9
2017-09-24T01:26:52.151Z,999.9
2017-09-24T01:27:12.507Z,999.9
2017-09-24T01:27:32.772Z,1000
2017-09-24T01:27:53.111Z,1000
2017-09-24T01:28:13.501Z,999.9
2017-09-24T01:28:33.798Z,1000
2017-09-24T01:28:54.079Z,1000
2017-09-24T01:29:14.493Z,1000
2017-09-24T01:29:34.754Z,999.9
2017-09-24T01:29:54.973Z,999.9
2017-09-24T01:30:15.322Z,999.9
2017-09-24T01:30:35.740Z,999.9
2017-09-24T01:30:56.122Z,1000
2017-09-24T01:31:16.748Z,999.9
2017-09-24T01:31:37.817Z,999.9
2017-09-24T01:31:58.194Z,999.9
2017-09-24T01:32:18.582Z,999.9
2017-09-24T01:32:38.935Z,1000
2017-09-24T01:32:59.230Z,1000
2017-09-24T01:33:19.646Z,1000
2017-09-24T01:33:39.996Z,1000
2017-09-24T01:34:00.242Z,1000
2017-09-24T01:34:20.600Z,1000
2017-09-24T01:34:40.927Z,1000
2017-09-24T01:35:01.300Z,1000
2017-09-24T01:35:21.652Z,1000
2017-09-24T01:35:41.871Z,1000
2017-09-24T01:36:02.220Z,1000
2017-09-24T01:36:22.541Z,1000
2017-09-24T01:36:42.945Z,1000
2017-09-24T01:37:03.319Z,1000
2017-09-24T01:37:23.613Z,999.9
2017-09-24T01:37:43.924Z,1000
2017-09-24T01:38:04.365Z,1000
2017-09-24T01:38:24.694Z,1000
2017-09-24T01:38:45.051Z,1000
2017-09-24T01:39:05.430Z,999.9
2017-09-24T01:39:25.981Z,1000
2017-09-24T01:39:46.416Z,999.9
2017-09-24T01:40:06.898Z,999.9
2017-09-24T01:40:27.421Z,1000
2017-09-24T01:40:47.893Z,999.9
2017-09-24T01:41:08.268Z,999.9
2017-09-24T01:41:28.681Z,999.9
2017-09-24T01:41:49.095Z,999.9
2017-09-24T01:42:09.541Z,999.9
2017-09-24T01:42:30.139Z,999.9
2017-09-24T01:42:50.405Z,999.9
2017-09-24T01:43:10.880Z,999.9
2017-09-24T01:43:31.129Z,999.9
2017-09-24T01:43:51.435Z,999.9
2017-09-24T01:44:11.725Z,999.9
2017-09-24T01:44:32.177Z,999.9
2017-09-24T01:44:52.612Z,999.9
2017-09-24T01:45:12.931Z,999.8
2017-09-24T01:45:33.332Z,999.9
2017-09-24T01:45:53.835Z,999.9
2017-09-24T01:46:14.460Z,999.9
2017-09-24T01:46:34.787Z,999.9
2017-09-24T01:46:55.171Z,999.9
2017-09-24T01:47:15.546Z,999.9
2017-09-24T01:47:35.882Z,999.9
2017-09-24T01:47:56.224Z,999.9
2017-09-24T01:48:16.594Z,999.9
2017-09-24T01:48:36.895Z,999.9
2017-09-24T01:48:57.221Z,999.9
2017-09-24T01:49:17.561Z,999.9
2017-09-24T01:49:38.009Z,999.8
2017-09-24T01:49:58.434Z,999.9
2017-09-24T01:50:18.738Z,999.8
2017-09-24T01:50:39.276Z,999.9
2017-09-24T01:50:59.654Z,999.9
2017-09-24T01:51:20.006Z,999.9
2017-09-24T01:51:40.390Z,999.9
2017-09-24T01:52:00.800Z,999.9
2017-09-24T01:52:21.321Z,999.9
2017-09-24T01:52:41.755Z,999.9
2017-09-24T01:53:02.135Z,999.8
2017-09-24T01:53:22.551Z,999.8
2017-09-24T01:53:43.179Z,999.9
2017-09-24T01:54:03.466Z,999.9
2017-09-24T01:54:23.847Z,999.9
2017-09-24T01:54:44.270Z,999.8
2017-09-24T01:55:04.587Z,999.8
2017-09-24T01:55:24.936Z,999.8
2017-09-24T01:55:45.353Z,999.8
2017-09-24T01:56:05.736Z,999.9
2017-09-24T01:56:26.226Z,999.9
2017-09-24T01:56:46.608Z,999.9
2017-09-24T01:57:07.041Z,999.9
2017-09-24T01:57:27.389Z,999.9
2017-09-24T01:57:47.677Z,999.9
2017-09-24T01:58:08.056Z,999.9
2017-09-24T01:58:28.484Z,999.8
2017-09-24T01:58:48.821Z,999.9
2017-09-24T01:59:09.230Z,999.9
2017-09-24T01:59:29.684Z,999.8
2017-09-24T01:59:50.088Z,999.9
2017-09-24T02:00:10.554Z,999.9
2017-09-24T02:00:30.977Z,999.9
2017-09-24T02:00:51.299Z,999.9
2017-09-24T02:01:11.828Z,999.9
2017-09-24T02:01:32.288Z,999.9
2017-09-24T02:01:52.698Z,999.9
2017-09-24T02:02:13.322Z,999.9
2017-09-24T02:02:33.756Z,999.9
2017-09-24T02:02:54.116Z,999.9
2017-09-24T02:03:14.491Z,999.9
2017-09-24T02:03:34.915Z,999.9
2017-09-24T02:03:55.170Z,999.9
2017-09-24T02:04:15.499Z,999.9
2017-09-24T02:04:35.911Z,999.9
2017-09-24T02:04:56.323Z,999.9
2017-09-24T02:05:16.854Z,999.9
2017-09-24T02:05:37.194Z,1000
2017-09-24T02:05:57.632Z,999.9
2017-09-24T02:06:17.883Z,999.9
2017-09-24T02:06:38.194Z,999.9
2017-09-24T02:06:58.564Z,999.9
2017-09-24T02:07:19.113Z,999.9
2017-09-24T02:07:39.480Z,999.9
2017-09-24T02:07:59.862Z,1000
2017-09-24T02:08:20.154Z,1000
2017-09-24T02:08:40.493Z,999.9
2017-09-24T02:09:00.956Z,999.9
2017-09-24T02:09:21.246Z,999.9
2017-09-24T02:09:41.562Z,999.9
2017-09-24T02:10:02.006Z,999.9
2017-09-24T02:10:22.309Z,999.9
2017-09-24T02:10:42.612Z,999.9
2017-09-24T02:11:03.047Z,999.9
2017-09-24T02:11:23.508Z,999.9
2017-09-24T02:11:43.801Z,999.9
2017-09-24T02:12:04.213Z,999.9
2017-09-24T02:12:24.559Z,999.9
2017-09-24T02:12:45.046Z,999.9
2017-09-24T02:13:05.443Z,999.9
2017-09-24T02:13:25.946Z,999.9
2017-09-24T02:13:46.252Z,999.9
2017-09-24T02:14:06.601Z,999.9
2017-09-24T02:14:27.041Z,999.9
2017-09-24T02:14:47.314Z,999.9
2017-09-24T02:15:07.740Z,999.9
2017-09-24T02:15:28.279Z,999.9
2017-09-24T02:15:48.817Z,999.9
2017-09-24T02:16:09.310Z,999.9
2017-09-24T02:16:29.801Z,999.9
2017-09-24T02:16:50.199Z,999.9
2017-09-24T02:17:10.597Z,999.9
2017-09-24T02:17:30.816Z,999.9
2017-09-24T02:17:51.222Z,999.9
2017-09-24T02:18:11.638Z,999.9
2017-09-24T02:18:31.979Z,999.9
2017-09-24T02:18:52.399Z,999.9
2017-09-24T02:19:12.776Z,999.9
2017-09-24T02:19:33.108Z,999.9
2017-09-24T02:19:53.392Z,999.9
2017-09-24T02:20:13.782Z,999.9
2017-09-24T02:20:34.218Z,999.9
2017-09-24T02:20:54.602Z,999.9
2017-09-24T02:21:14.868Z,999.9
2017-09-24T02:21:35.256Z,999.9
2017-09-24T02:21:55.563Z,999.9
2017-09-24T02:22:15.857Z,999.9
2017-09-24T02:22:36.227Z,999.9
2017-09-24T02:22:56.659Z,999.9
2017-09-24T02:23:16.957Z,999.9
2017-09-24T02:23:37.255Z,1000
2017-09-24T02:23:57.570Z,999.9
2017-09-24T02:24:17.965Z,999.9
2017-09-24T02:24:38.281Z,999.9
2017-09-24T02:24:58.613Z,999.9
2017-09-24T02:25:18.959Z,999.9
2017-09-24T02:25:39.350Z,999.9
2017-09-24T02:25:59.578Z,999.9
2017-09-24T02:26:19.997Z,999.9
2017-09-24T02:26:40.431Z,999.9
2017-09-24T02:27:00.836Z,999.9
2017-09-24T02:27:21.172Z,999.9
2017-09-24T02:27:41.500Z,1000
2017-09-24T02:28:01.795Z,999.9
2017-09-24T02:28:22.111Z,999.9
2017-09-24T02:28:42.312Z,999.9
2017-09-24T02:29:02.781Z,1000
2017-09-24T02:29:23.206Z,1000
2017-09-24T02:29:43.526Z,1000
2017-09-24T02:30:03.873Z,999.9
2017-09-24T02:30:24.457Z,999.9
2017-09-24T02:30:44.890Z,1000
2017-09-24T02:31:05.350Z,999.9
2017-09-24T02:31:25.842Z,999.9
2017-09-24T02:31:46.256Z,1000
2017-09-24T02:32:06.673Z,1000
2017-09-24T02:32:27.043Z,1000
2017-09-24T02:32:47.480Z,1000
2017-09-24T02:33:07.939Z,1000
2017-09-24T02:33:28.347Z,1000
2017-09-24T02:33:48.739Z,1000
2017-09-24T02:34:09.176Z,999.9
2017-09-24T02:34:29.438Z,1000
2017-09-24T02:34:49.837Z,1000
2017-09-24T02:35:10.280Z,999.9
2017-09-24T02:35:30.693Z,999.9
2017-09-24T02:35:50.959Z,1000
2017-09-24T02:36:11.197Z,999.9
2017-09-24T02:36:31.648Z,999.9
2017-09-24T02:36:51.950Z,999.9
2017-09-24T02:37:12.384Z,999.9
2017-09-24T02:37:32.690Z,999.9
2017-09-24T02:37:52.982Z,999.9
2017-09-24T02:38:13.367Z,999.9
2017-09-24T02:38:33.694Z,999.9
2017-09-24T02:38:54.044Z,999.9
2017-09-24T02:39:14.287Z,999.9
2017-09-24T02:39:34.726Z,999.9
2017-09-24T02:39:55.165Z,999.8
2017-09-24T02:40:15.491Z,999.9
2017-09-24T02:40:35.791Z,999.9
2017-09-24T02:40:56.131Z,999.9
2017-09-24T02:41:16.445Z,999.9
2017-09-24T02:41:36.808Z,999.9
2017-09-24T02:41:57.145Z,999.8
2017-09-24T02:42:17.346Z,999.9
2017-09-24T02:42:37.626Z,999.9
2017-09-24T02:42:57.937Z,999.9
2017-09-24T02:43:18.294Z,999.9
2017-09-24T02:43:38.633Z,999.9
2017-09-24T02:43:59.127Z,999.9
2017-09-24T02:44:19.447Z,999.9
2017-09-24T02:44:39.692Z,999.9
2017-09-24T02:45:00.049Z,999.9
2017-09-24T02:45:20.460Z,999.9
2017-09-24T02:45:40.953Z,999.9
2017-09-24T02:46:01.276Z,999.9
2017-09-24T02:46:21.559Z,999.9
2017-09-24T02:46:43.174Z,999.9
2017-09-24T02:47:03.541Z,999.9
2017-09-24T02:47:23.973Z,999.9
2017-09-24T02:47:44.269Z,999.9
2017-09-24T02:48:04.552Z,999.9
2017-09-24T02:48:24.831Z,999.9
2017-09-24T02:48:45.135Z,999.9
2017-09-24T02:49:05.479Z,999.9
2017-09-24T02:49:25.789Z,999.9
2017-09-24T02:49:46.199Z,999.9
2017-09-24T02:50:06.542Z,999.9
2017-09-24T02:50:26.903Z,999.9
2017-09-24T02:50:47.219Z,999.9
2017-09-24T02:51:07.459Z,999.9
2017-09-24T02:51:27.746Z,999.9
2017-09-24T02:51:48.130Z,999.9
2017-09-24T02:52:08.518Z,999.9
2017-09-24T02:52:28.812Z,999.9
2017-09-24T02:52:49.159Z,999.9
2017-09-24T02:53:09.660Z,999.9
2017-09-24T02:53:29.980Z,999.9
2017-09-24T02:53:50.303Z,999.9
2017-09-24T02:54:10.678Z,999.9
2017-09-24T02:54:31.067Z,999.9
2017-09-24T02:54:51.825Z,999.9
2017-09-24T02:55:12.147Z,999.9
2017-09-24T02:55:32.499Z,999.9
2017-09-24T02:55:52.795Z,999.9
2017-09-24T02:56:13.140Z,999.9
2017-09-24T02:56:33.369Z,999.9
2017-09-24T02:56:53.691Z,999.9
2017-09-24T02:57:14.080Z,999.9
2017-09-24T02:57:34.349Z,999.8
2017-09-24T02:57:54.844Z,999.9
2017-09-24T02:58:15.144Z,999.9
2017-09-24T02:58:35.589Z,999.8
2017-09-24T02:58:55.833Z,999.8
2017-09-24T02:59:16.186Z,999.8
2017-09-24T02:59:36.583Z,999.8
2017-09-24T02:59:57.096Z,999.9
2017-09-24T03:00:17.545Z,999.9
2017-09-24T03:00:37.960Z,999.9
2017-09-24T03:00:58.377Z,999.8
2017-09-24T03:01:18.729Z,999.8
2017-09-24T03:01:38.950Z,999.8
2017-09-24T03:01:59.547Z,999.8
2017-09-24T03:02:19.811Z,999.8
2017-09-24T03:02:40.225Z,999.8
2017-09-24T03:03:00.619Z,999.9
2017-09-24T03:03:21.066Z,999.9
2017-09-24T03:03:41.396Z,999.8
2017-09-24T03:04:01.793Z,999.8
2017-09-24T03:04:22.114Z,999.9
2017-09-24T03:04:42.429Z,999.8
2017-09-24T03:05:02.770Z,999.8
2017-09-24T03:05:23.192Z,999.9
2017-09-24T03:05:43.547Z,999.8
2017-09-24T03:06:03.864Z,999.9
2017-09-24T03:06:24.239Z,999.8
2017-09-24T03:06:44.672Z,999.9
2017-09-24T03:07:04.958Z,999.8
2017-09-24T03:07:25.403Z,999.9
2017-09-24T03:07:45.646Z,999.9
2017-09-24T03:08:06.059Z,999.8
2017-09-24T03:08:26.282Z,999.9
2017-09-24T03:08:46.599Z,999.8
2017-09-24T03:09:06.988Z,999.9
2017-09-24T03:09:27.531Z,999.9
2017-09-24T03:09:47.959Z,999.8
2017-09-24T03:10:08.515Z,999.9
2017-09-24T03:10:28.994Z,999.8
2017-09-24T03:10:49.543Z,999.9
2017-09-24T03:11:09.959Z,999.8
2017-09-24T03:11:30.221Z,999.8
2017-09-24T03:11:50.743Z,999.8
2017-09-24T03:12:11.158Z,999.8
2017-09-24T03:12:31.348Z,999.8
2017-09-24T03:12:51.681Z,999.8
2017-09-24T03:13:12.052Z,999.8
2017-09-24T03:13:47.354Z,999.8
2017-09-24T03:14:07.733Z,999.8
2017-09-24T03:14:28.067Z,999.8
2017-09-24T03:14:48.474Z,999.8
2017-09-24T03:15:08.830Z,999.8
2017-09-24T03:15:29.231Z,999.8
2017-09-24T03:15:49.776Z,999.8
2017-09-24T03:16:10.229Z,999.8
2017-09-24T03:16:30.686Z,999.8
2017-09-24T03:16:50.995Z,999.8
2017-09-24T03:17:11.371Z,999.8
2017-09-24T03:17:31.670Z,999.7
2017-09-24T03:17:51.923Z,999.8
2017-09-24T03:18:12.238Z,999.8
2017-09-24T03:18:32.627Z,999.8
2017-09-24T03:18:53.016Z,999.8
2017-09-24T03:19:13.310Z,999.8
2017-09-24T03:19:33.800Z,999.8
2017-09-24T03:19:54.154Z,999.7
2017-09-24T03:20:14.512Z,999.8
2017-09-24T03:20:35.057Z,999.8
2017-09-24T03:20:55.594Z,999.8
2017-09-24T03:21:15.935Z,999.8
2017-09-24T03:21:36.547Z,999.8
2017-09-24T03:21:56.965Z,999.7
2017-09-24T03:22:17.348Z,999.7
2017-09-24T03:22:37.715Z,999.7
2017-09-24T03:22:58.084Z,999.8
2017-09-24T03:23:18.461Z,999.8
2017-09-24T03:23:38.942Z,999.7
2017-09-24T03:23:59.227Z,999.8
2017-09-24T03:24:19.602Z,999.8
2017-09-24T03:24:39.939Z,999.8
2017-09-24T03:25:00.424Z,999.8
2017-09-24T03:25:20.941Z,999.8
2017-09-24T03:25:41.308Z,999.8
2017-09-24T03:26:01.713Z,999.8
2017-09-24T03:26:22.090Z,999.8
2017-09-24T03:26:42.453Z,999.8
2017-09-24T03:27:02.859Z,999.8
2017-09-24T03:27:23.251Z,999.8
2017-09-24T03:27:43.575Z,999.8
2017-09-24T03:28:03.938Z,999.8
2017-09-24T03:28:24.393Z,999.7
2017-09-24T03:28:44.843Z,999.8
2017-09-24T03:29:05.350Z,999.8
2017-09-24T03:29:25.826Z,999.8
2017-09-24T03:29:46.300Z,999.8
2017-09-24T03:30:06.630Z,999.8
2017-09-24T03:30:27.000Z,999.8
2017-09-24T03:30:47.524Z,999.8
2017-09-24T03:31:07.940Z,999.8
2017-09-24T03:31:28.586Z,999.8
2017-09-24T03:31:49.046Z,999.8
2017-09-24T03:32:09.459Z,999.8
2017-09-24T03:32:29.954Z,999.8
2017-09-24T03:32:50.395Z,999.8
2017-09-24T03:33:10.736Z,999.8
2017-09-24T03:33:31.101Z,999.8
2017-09-24T03:33:51.421Z,999.8
2017-09-24T03:34:11.915Z,999.8
2017-09-24T03:34:32.352Z,999.8
2017-09-24T03:34:52.854Z,999.8
2017-09-24T03:35:13.267Z,999.8
2017-09-24T03:35:33.737Z,999.8
2017-09-24T03:35:54.155Z,999.8
2017-09-24T03:36:14.478Z,999.8
2017-09-24T03:36:34.761Z,999.8
2017-09-24T03:36:55.111Z,999.8
2017-09-24T03:37:15.820Z,999.8
2017-09-24T03:37:36.267Z,999.9
2017-09-24T03:37:56.569Z,999.8
2017-09-24T03:38:17.133Z,999.8
2017-09-24T03:38:37.583Z,999.8
2017-09-24T03:38:57.840Z,999.8
2017-09-24T03:39:18.300Z,999.8
2017-09-24T03:39:38.781Z,999.8
2017-09-24T03:39:59.253Z,999.8
2017-09-24T03:40:19.552Z,999.9
2017-09-24T03:40:40.012Z,999.8
2017-09-24T03:41:00.328Z,999.8
2017-09-24T03:41:20.914Z,999.8
2017-09-24T03:41:41.188Z,999.8
2017-09-24T03:42:01.610Z,999.8
2017-09-24T03:42:22.059Z,999.8
2017-09-24T03:42:42.498Z,999.8
2017-09-24T03:43:02.962Z,999.8
2017-09-24T03:43:23.193Z,999.8
2017-09-24T03:43:43.654Z,999.8
2017-09-24T03:44:03.903Z,999.8
2017-09-24T03:44:24.272Z,999.8
2017-09-24T03:44:44.682Z,999.8
2017-09-24T03:45:05.181Z,999.7
2017-09-24T03:45:25.525Z,999.7
2017-09-24T03:45:45.788Z,999.7
2017-09-24T03:46:06.240Z,999.7
2017-09-24T03:46:26.643Z,999.7
2017-09-24T03:46:47.199Z,999.7
2017-09-24T03:47:07.669Z,999.7
2017-09-24T03:47:28.157Z,999.7
2017-09-24T03:47:48.542Z,999.7
2017-09-24T03:48:08.937Z,999.7
2017-09-24T03:48:29.479Z,999.7
2017-09-24T03:48:49.767Z,999.7
2017-09-24T03:49:10.079Z,999.7
2017-09-24T03:49:30.298Z,999.7
2017-09-24T03:49:50.622Z,999.7
2017-09-24T03:50:11.028Z,999.7
2017-09-24T03:50:31.370Z,999.7
2017-09-24T03:50:51.942Z,999.7
2017-09-24T03:51:12.448Z,999.7
2017-09-24T03:51:32.827Z,999.7
2017-09-24T03:51:53.270Z,999.7
2017-09-24T03:52:13.682Z,999.7
2017-09-24T03:52:34.073Z,999.7
2017-09-24T03:52:54.481Z,999.7
2017-09-24T03:53:14.981Z,999.7
2017-09-24T03:53:35.746Z,999.7
2017-09-24T03:53:56.344Z,999.7
2017-09-24T03:54:16.779Z,999.7
2017-09-24T03:54:37.428Z,999.7
2017-09-24T03:54:57.940Z,999.7
2017-09-24T03:55:18.651Z,999.7
2017-09-24T03:55:38.988Z,999.7
2017-09-24T03:55:59.398Z,999.6
2017-09-24T03:56:19.867Z,999.7
2017-09-24T03:56:40.440Z,999.6
2017-09-24T03:57:00.917Z,999.6
2017-09-24T03:57:21.362Z,999.7
2017-09-24T03:57:41.771Z,999.7
2017-09-24T03:58:02.198Z,999.7
2017-09-24T03:58:22.602Z,999.7
2017-09-24T03:58:43.000Z,999.7
2017-09-24T03:59:03.530Z,999.7
2017-09-24T03:59:23.853Z,999.7
2017-09-24T03:59:44.274Z,999.7
2017-09-24T04:00:04.666Z,999.7
2017-09-24T04:00:25.192Z,999.7
2017-09-24T04:00:45.663Z,999.7
2017-09-24T04:01:06.149Z,999.7
2017-09-24T04:01:26.697Z,999.7
2017-09-24T04:01:47.146Z,999.6
2017-09-24T04:02:07.582Z,999.7
2017-09-24T04:02:28.142Z,999.7
2017-09-24T04:02:48.528Z,999.7
2017-09-24T04:03:08.968Z,999.7
2017-09-24T04:03:29.535Z,999.7
2017-09-24T04:03:49.821Z,999.7
2017-09-24T04:04:10.327Z,999.7
2017-09-24T04:04:30.754Z,999.7
2017-09-24T04:04:51.263Z,999.7
2017-09-24T04:05:11.582Z,999.7
2017-09-24T04:05:31.925Z,999.7
2017-09-24T04:05:52.320Z,999.7
2017-09-24T04:06:12.673Z,999.7
2017-09-24T04:06:33.031Z,999.7
2017-09-24T04:06:53.463Z,999.7
2017-09-24T04:07:13.770Z,999.7
2017-09-24T04:07:34.119Z,999.7
2017-09-24T04:07:54.566Z,999.7
2017-09-24T04:08:15.095Z,999.7
2017-09-24T04:08:35.476Z,999.7
2017-09-24T04:08:55.872Z,999.8
2017-09-24T04:09:16.639Z,999.7
2017-09-24T04:09:36.960Z,999.7
2017-09-24T04:09:57.335Z,999.7
2017-09-24T04:10:17.732Z,999.7
2017-09-24T04:10:38.135Z,999.7
2017-09-24T04:10:58.577Z,999.7
2017-09-24T04:11:18.833Z,999.7
2017-09-24T04:11:39.240Z,999.7
2017-09-24T04:11:59.643Z,999.7
2017-09-24T04:12:19.985Z,999.7
2017-09-24T04:12:40.246Z,999.7
2017-09-24T04:13:00.689Z,999.7
2017-09-24T04:13:21.120Z,999.7
2017-09-24T04:13:41.603Z,999.7
2017-09-24T04:14:02.005Z,999.7
2017-09-24T04:14:22.603Z,999.7
2017-09-24T04:14:43.217Z,999.7
2017-09-24T04:15:03.520Z,999.7
2017-09-24T04:15:23.870Z,999.7
2017-09-24T04:15:44.273Z,999.7
2017-09-24T04:16:04.701Z,999.7
2017-09-24T04:16:25.023Z,999.7
2017-09-24T04:16:45.318Z,999.7
2017-09-24T04:17:05.710Z,999.7
2017-09-24T04:17:26.099Z,999.7
2017-09-24T04:17:46.357Z,999.7
2017-09-24T04:18:06.697Z,999.7
2017-09-24T04:18:27.293Z,999.7
2017-09-24T04:18:47.818Z,999.7
2017-09-24T04:19:08.034Z,999.7
2017-09-24T04:19:28.497Z,999.7
2017-09-24T04:19:48.797Z,999.8
2017-09-24T04:20:09.167Z,999.7
2017-09-24T04:20:29.571Z,999.7
2017-09-24T04:20:49.862Z,999.8
2017-09-24T04:21:10.078Z,999.8
2017-09-24T04:21:30.549Z,999.7
2017-09-24T04:21:50.889Z,999.8
2017-09-24T04:22:11.227Z,999.8